AZU1909 SBRP-SBBW
Flight info
| Callsign | AZU1909 |
|---|---|
| Flight time | 1h 13m |
| Altitude | 30000 |
| Route | VUPOG UL304 ESDEV |
| Aircraft | E195/M-SDE3GILORVW/S |
Departure
| Time | 2026-04-26 13:19 |
|---|---|
| Airport | Leite Lopes Airport (SBRP) |
Arrival
| Time | 2026-04-26 14:33 |
|---|---|
| Airport | Barra do Garças Airport (SBBW) |
| Time | Latitude | Longitude | Altitude | Speed | Heading |
|---|---|---|---|---|---|
| 2026-04-26 13:10 | -21.13888 | -47.77558 | 1821 ft | 2 kts | 299° |
| 2026-04-26 13:10 | -21.13897 | -47.77546 | 1822 ft | 2 kts | 320° |
| 2026-04-26 13:10 | -21.13910 | -47.77538 | 1822 ft | 1 kts | 340° |
| 2026-04-26 13:11 | -21.13914 | -47.77536 | 1822 ft | 0 kts | 343° |
| 2026-04-26 13:11 | -21.13914 | -47.77537 | 1822 ft | 0 kts | 343° |
| 2026-04-26 13:13 | -21.13900 | -47.77541 | 1822 ft | 3 kts | 345° |
| 2026-04-26 13:13 | -21.13869 | -47.77526 | 1822 ft | 6 kts | 62° |
| 2026-04-26 13:14 | -21.13855 | -47.77467 | 1822 ft | 8 kts | 82° |
| 2026-04-26 13:14 | -21.13893 | -47.77426 | 1822 ft | 8 kts | 165° |
| 2026-04-26 13:14 | -21.13950 | -47.77409 | 1822 ft | 8 kts | 164° |
| 2026-04-26 13:14 | -21.14009 | -47.77391 | 1823 ft | 8 kts | 163° |
| 2026-04-26 13:15 | -21.14067 | -47.77373 | 1824 ft | 8 kts | 163° |
| 2026-04-26 13:15 | -21.14127 | -47.77354 | 1824 ft | 9 kts | 163° |
| 2026-04-26 13:15 | -21.14192 | -47.77333 | 1825 ft | 10 kts | 163° |
| 2026-04-26 13:15 | -21.14238 | -47.77318 | 1825 ft | 10 kts | 160° |
| 2026-04-26 13:16 | -21.14290 | -47.77236 | 1825 ft | 9 kts | 100° |
| 2026-04-26 13:16 | -21.14306 | -47.77163 | 1826 ft | 10 kts | 103° |
| 2026-04-26 13:16 | -21.14284 | -47.77130 | 1826 ft | 0 kts | 346° |
| 2026-04-26 13:16 | -21.14281 | -47.77131 | 1826 ft | 0 kts | 343° |
| 2026-04-26 13:18 | -21.14176 | -47.77166 | 1825 ft | 50 kts | 343° |
| 2026-04-26 13:19 | -21.13585 | -47.77354 | 1820 ft | 124 kts | 343° |
| 2026-04-26 13:19 | -21.12563 | -47.77684 | 1906 ft | 171 kts | 343° |
| 2026-04-26 13:19 | -21.11430 | -47.78134 | 2493 ft | 181 kts | 325° |
| 2026-04-26 13:19 | -21.10684 | -47.79187 | 3270 ft | 183 kts | 295° |
| 2026-04-26 13:20 | -21.10206 | -47.80529 | 3707 ft | 202 kts | 292° |
| 2026-04-26 13:20 | -21.09702 | -47.82001 | 4200 ft | 218 kts | 292° |
| 2026-04-26 13:20 | -21.09171 | -47.83545 | 4822 ft | 227 kts | 292° |
| 2026-04-26 13:20 | -21.08604 | -47.85186 | 5156 ft | 252 kts | 291° |
| 2026-04-26 13:21 | -21.08184 | -47.86400 | 5405 ft | 268 kts | 291° |
| 2026-04-26 13:21 | -21.07521 | -47.88315 | 6085 ft | 278 kts | 291° |
| 2026-04-26 13:21 | -21.06629 | -47.90890 | 7255 ft | 279 kts | 291° |
| 2026-04-26 13:21 | -21.05954 | -47.92835 | 8100 ft | 280 kts | 291° |
| 2026-04-26 13:22 | -21.05277 | -47.94784 | 8872 ft | 283 kts | 291° |
| 2026-04-26 13:22 | -21.04583 | -47.96778 | 9601 ft | 287 kts | 291° |
| 2026-04-26 13:22 | -21.03882 | -47.98795 | 10310 ft | 291 kts | 291° |
| 2026-04-26 13:22 | -21.03165 | -48.00857 | 10859 ft | 301 kts | 291° |
| 2026-04-26 13:23 | -21.02425 | -48.02983 | 11277 ft | 314 kts | 291° |
| 2026-04-26 13:23 | -21.01635 | -48.05251 | 11658 ft | 329 kts | 291° |
| 2026-04-26 13:23 | -21.00824 | -48.07581 | 12064 ft | 342 kts | 291° |
| 2026-04-26 13:23 | -20.99979 | -48.10006 | 12546 ft | 352 kts | 291° |
| 2026-04-26 13:24 | -20.99123 | -48.12461 | 13169 ft | 356 kts | 291° |
| 2026-04-26 13:24 | -20.98251 | -48.14960 | 13890 ft | 357 kts | 290° |
| 2026-04-26 13:24 | -20.97384 | -48.17444 | 14620 ft | 357 kts | 290° |
| 2026-04-26 13:24 | -20.96518 | -48.19923 | 15310 ft | 357 kts | 290° |
| 2026-04-26 13:25 | -20.95636 | -48.22446 | 15953 ft | 359 kts | 290° |
| 2026-04-26 13:25 | -20.94767 | -48.24932 | 16554 ft | 362 kts | 290° |
| 2026-04-26 13:25 | -20.93880 | -48.27467 | 17156 ft | 364 kts | 289° |
| 2026-04-26 13:25 | -20.92995 | -48.29998 | 17727 ft | 366 kts | 289° |
| 2026-04-26 13:26 | -20.92097 | -48.32563 | 18268 ft | 370 kts | 289° |
| 2026-04-26 13:26 | -20.91191 | -48.35148 | 18784 ft | 373 kts | 289° |
| 2026-04-26 13:26 | -20.90280 | -48.37746 | 19286 ft | 377 kts | 289° |
| 2026-04-26 13:26 | -20.89350 | -48.40399 | 19800 ft | 380 kts | 289° |
| 2026-04-26 13:27 | -20.88425 | -48.43034 | 20311 ft | 382 kts | 289° |
| 2026-04-26 13:27 | -20.87469 | -48.45756 | 20824 ft | 384 kts | 290° |
| 2026-04-26 13:27 | -20.86536 | -48.48412 | 21292 ft | 387 kts | 290° |
| 2026-04-26 13:27 | -20.85560 | -48.51187 | 21747 ft | 390 kts | 290° |
| 2026-04-26 13:28 | -20.84614 | -48.53876 | 22179 ft | 393 kts | 290° |
| 2026-04-26 13:28 | -20.83647 | -48.56623 | 22646 ft | 395 kts | 290° |
| 2026-04-26 13:28 | -20.82674 | -48.59387 | 23112 ft | 398 kts | 290° |
| 2026-04-26 13:28 | -20.81695 | -48.62166 | 23562 ft | 401 kts | 290° |
| 2026-04-26 13:29 | -20.80698 | -48.64991 | 24008 ft | 403 kts | 290° |
| 2026-04-26 13:29 | -20.80038 | -48.66864 | 24325 ft | 405 kts | 290° |
| 2026-04-26 13:29 | -20.78720 | -48.70598 | 24926 ft | 408 kts | 290° |
| 2026-04-26 13:29 | -20.77701 | -48.73482 | 25361 ft | 410 kts | 290° |
| 2026-04-26 13:30 | -20.76691 | -48.76339 | 25779 ft | 413 kts | 290° |
| 2026-04-26 13:30 | -20.75672 | -48.79221 | 26203 ft | 415 kts | 290° |
| 2026-04-26 13:30 | -20.74559 | -48.82038 | 26590 ft | 418 kts | 300° |
| 2026-04-26 13:30 | -20.72631 | -48.84390 | 26950 ft | 423 kts | 320° |
| 2026-04-26 13:31 | -20.70245 | -48.86259 | 27382 ft | 425 kts | 322° |
| 2026-04-26 13:31 | -20.67835 | -48.88088 | 27790 ft | 427 kts | 323° |
| 2026-04-26 13:31 | -20.65411 | -48.89910 | 28175 ft | 429 kts | 323° |
| 2026-04-26 13:31 | -20.62960 | -48.91749 | 28581 ft | 431 kts | 323° |
| 2026-04-26 13:32 | -20.60486 | -48.93602 | 28949 ft | 433 kts | 323° |
| 2026-04-26 13:32 | -20.58002 | -48.95462 | 29282 ft | 436 kts | 323° |
| 2026-04-26 13:32 | -20.55518 | -48.97321 | 29630 ft | 438 kts | 323° |
| 2026-04-26 13:32 | -20.53040 | -48.99176 | 29928 ft | 434 kts | 323° |
| 2026-04-26 13:33 | -20.50558 | -49.01031 | 29972 ft | 440 kts | 323° |
| 2026-04-26 13:33 | -20.45418 | -49.04873 | 29987 ft | 457 kts | 323° |
| 2026-04-26 13:34 | -20.40103 | -49.08842 | 29985 ft | 472 kts | 323° |
| 2026-04-26 13:34 | -20.34672 | -49.12894 | 29983 ft | 482 kts | 323° |
| 2026-04-26 13:35 | -20.29144 | -49.17015 | 29980 ft | 485 kts | 324° |
| 2026-04-26 13:35 | -20.23578 | -49.21160 | 29978 ft | 484 kts | 324° |
| 2026-04-26 13:36 | -20.18051 | -49.25273 | 29978 ft | 484 kts | 324° |
| 2026-04-26 13:36 | -20.12614 | -49.29310 | 29967 ft | 451 kts | 323° |
| 2026-04-26 13:36 | -20.10113 | -49.31173 | 29961 ft | 432 kts | 323° |
| 2026-04-26 13:37 | -20.07625 | -49.33021 | 29977 ft | 434 kts | 324° |
| 2026-04-26 13:37 | -20.02615 | -49.36740 | 29980 ft | 443 kts | 324° |
| 2026-04-26 13:38 | -19.97517 | -49.40521 | 29979 ft | 443 kts | 324° |
| 2026-04-26 13:38 | -19.92528 | -49.44217 | 29970 ft | 431 kts | 324° |
| 2026-04-26 13:39 | -19.87484 | -49.47953 | 29986 ft | 441 kts | 324° |
| 2026-04-26 13:39 | -19.82394 | -49.51718 | 29985 ft | 443 kts | 324° |
| 2026-04-26 13:40 | -19.77316 | -49.55473 | 29981 ft | 442 kts | 324° |
| 2026-04-26 13:40 | -19.72252 | -49.59214 | 29971 ft | 443 kts | 324° |
| 2026-04-26 13:41 | -19.67179 | -49.62959 | 29977 ft | 443 kts | 324° |
| 2026-04-26 13:41 | -19.62102 | -49.66704 | 29976 ft | 444 kts | 324° |
| 2026-04-26 13:42 | -19.57017 | -49.70451 | 29978 ft | 444 kts | 325° |
| 2026-04-26 13:42 | -19.51921 | -49.74204 | 29984 ft | 444 kts | 324° |
| 2026-04-26 13:43 | -19.46823 | -49.77955 | 29983 ft | 444 kts | 324° |
| 2026-04-26 13:43 | -19.41752 | -49.81683 | 29980 ft | 444 kts | 324° |
| 2026-04-26 13:44 | -19.36671 | -49.85417 | 29991 ft | 444 kts | 324° |
| 2026-04-26 13:44 | -19.31592 | -49.89146 | 29988 ft | 444 kts | 324° |
| 2026-04-26 13:45 | -19.26484 | -49.92893 | 29984 ft | 444 kts | 325° |
| 2026-04-26 13:45 | -19.21409 | -49.96613 | 29986 ft | 445 kts | 325° |
| 2026-04-26 13:46 | -19.16309 | -50.00348 | 29984 ft | 445 kts | 325° |
| 2026-04-26 13:46 | -19.11194 | -50.04092 | 29981 ft | 446 kts | 325° |
| 2026-04-26 13:47 | -19.06079 | -50.07833 | 29979 ft | 446 kts | 325° |
| 2026-04-26 13:47 | -19.00974 | -50.11564 | 29977 ft | 445 kts | 325° |
| 2026-04-26 13:48 | -18.95859 | -50.15300 | 29975 ft | 445 kts | 325° |
| 2026-04-26 13:48 | -18.90764 | -50.19017 | 29975 ft | 446 kts | 325° |
| 2026-04-26 13:49 | -18.85643 | -50.22751 | 29974 ft | 445 kts | 325° |
| 2026-04-26 13:49 | -18.80541 | -50.26469 | 29973 ft | 447 kts | 325° |
| 2026-04-26 13:50 | -18.75390 | -50.30219 | 29974 ft | 445 kts | 325° |
| 2026-04-26 13:50 | -18.70269 | -50.33944 | 29973 ft | 445 kts | 325° |
| 2026-04-26 13:51 | -18.65157 | -50.37660 | 29973 ft | 446 kts | 325° |
| 2026-04-26 13:51 | -18.60025 | -50.41389 | 29982 ft | 447 kts | 325° |
| 2026-04-26 13:52 | -18.54909 | -50.45102 | 29984 ft | 447 kts | 325° |
| 2026-04-26 13:52 | -18.49780 | -50.48822 | 29989 ft | 447 kts | 326° |
| 2026-04-26 13:53 | -18.44645 | -50.52542 | 29995 ft | 446 kts | 326° |
| 2026-04-26 13:53 | -18.39497 | -50.56267 | 30005 ft | 446 kts | 326° |
| 2026-04-26 13:54 | -18.34366 | -50.59978 | 30013 ft | 447 kts | 326° |
| 2026-04-26 13:54 | -18.29241 | -50.63682 | 30027 ft | 447 kts | 326° |
| 2026-04-26 13:55 | -18.22354 | -50.68654 | 30041 ft | 446 kts | 326° |
| 2026-04-26 13:56 | -18.13762 | -50.74851 | 30042 ft | 446 kts | 326° |
| 2026-04-26 13:56 | -18.08619 | -50.78556 | 30042 ft | 447 kts | 326° |
| 2026-04-26 13:57 | -18.03470 | -50.82264 | 30038 ft | 447 kts | 326° |
| 2026-04-26 13:57 | -17.98277 | -50.86000 | 30038 ft | 447 kts | 326° |
| 2026-04-26 13:58 | -17.93153 | -50.89684 | 30044 ft | 448 kts | 326° |
| 2026-04-26 13:58 | -17.87999 | -50.93387 | 30050 ft | 448 kts | 326° |
| 2026-04-26 13:59 | -17.82846 | -50.97086 | 30055 ft | 448 kts | 326° |
| 2026-04-26 13:59 | -17.77644 | -51.00816 | 30061 ft | 448 kts | 326° |
| 2026-04-26 14:00 | -17.67196 | -51.08302 | 30064 ft | 448 kts | 326° |
| 2026-04-26 14:01 | -17.62026 | -51.12002 | 30063 ft | 447 kts | 326° |
| 2026-04-26 14:01 | -17.56853 | -51.15701 | 30142 ft | 447 kts | 326° |
| 2026-04-26 14:02 | -17.51678 | -51.19399 | 30145 ft | 449 kts | 327° |
| 2026-04-26 14:02 | -17.46523 | -51.23080 | 30144 ft | 448 kts | 326° |
| 2026-04-26 14:03 | -17.41381 | -51.26751 | 30145 ft | 448 kts | 327° |
| 2026-04-26 14:03 | -17.36212 | -51.30438 | 30144 ft | 449 kts | 326° |
| 2026-04-26 14:04 | -17.31029 | -51.34138 | 30140 ft | 448 kts | 327° |
| 2026-04-26 14:04 | -17.25888 | -51.37806 | 30130 ft | 442 kts | 327° |
| 2026-04-26 14:05 | -17.20881 | -51.41375 | 30130 ft | 432 kts | 327° |
| 2026-04-26 14:05 | -17.15898 | -51.44925 | 29980 ft | 434 kts | 327° |
| 2026-04-26 14:06 | -17.10902 | -51.48483 | 29993 ft | 434 kts | 327° |
| 2026-04-26 14:06 | -17.05905 | -51.52038 | 29987 ft | 433 kts | 327° |
| 2026-04-26 14:07 | -17.00904 | -51.55593 | 29979 ft | 435 kts | 327° |
| 2026-04-26 14:07 | -16.95907 | -51.59144 | 29971 ft | 434 kts | 327° |
| 2026-04-26 14:08 | -16.90890 | -51.62706 | 29962 ft | 434 kts | 327° |
| 2026-04-26 14:08 | -16.85903 | -51.66246 | 29966 ft | 434 kts | 327° |
| 2026-04-26 14:09 | -16.80855 | -51.69825 | 29434 ft | 435 kts | 327° |
| 2026-04-26 14:09 | -16.78352 | -51.71597 | 29003 ft | 433 kts | 327° |
| 2026-04-26 14:09 | -16.75870 | -51.73355 | 28574 ft | 430 kts | 327° |
| 2026-04-26 14:09 | -16.73384 | -51.75114 | 28138 ft | 426 kts | 327° |
| 2026-04-26 14:10 | -16.70928 | -51.76852 | 27704 ft | 423 kts | 327° |
| 2026-04-26 14:10 | -16.68506 | -51.78565 | 27275 ft | 421 kts | 327° |
| 2026-04-26 14:10 | -16.66090 | -51.80273 | 26845 ft | 419 kts | 327° |
| 2026-04-26 14:10 | -16.63668 | -51.81985 | 26287 ft | 420 kts | 327° |
| 2026-04-26 14:11 | -16.58830 | -51.85403 | 24711 ft | 416 kts | 327° |
| 2026-04-26 14:11 | -16.56464 | -51.87074 | 23898 ft | 414 kts | 327° |
| 2026-04-26 14:11 | -16.54086 | -51.88752 | 23000 ft | 414 kts | 326° |
| 2026-04-26 14:12 | -16.51695 | -51.90440 | 22122 ft | 413 kts | 326° |
| 2026-04-26 14:12 | -16.49330 | -51.92108 | 21279 ft | 413 kts | 326° |
| 2026-04-26 14:12 | -16.46949 | -51.93788 | 20424 ft | 411 kts | 326° |
| 2026-04-26 14:12 | -16.44563 | -51.95470 | 19571 ft | 410 kts | 326° |
| 2026-04-26 14:13 | -16.39862 | -51.98783 | 17872 ft | 405 kts | 326° |
| 2026-04-26 14:13 | -16.37567 | -52.00404 | 17549 ft | 388 kts | 324° |
| 2026-04-26 14:13 | -16.35729 | -52.02331 | 17231 ft | 372 kts | 301° |
| 2026-04-26 14:14 | -16.34874 | -52.04806 | 16964 ft | 359 kts | 276° |
| 2026-04-26 14:14 | -16.35144 | -52.07333 | 16731 ft | 357 kts | 250° |
| 2026-04-26 14:14 | -16.36486 | -52.09520 | 16495 ft | 362 kts | 224° |
| 2026-04-26 14:14 | -16.38609 | -52.10897 | 16275 ft | 365 kts | 202° |
| 2026-04-26 14:15 | -16.41028 | -52.11770 | 16027 ft | 365 kts | 200° |
| 2026-04-26 14:15 | -16.43438 | -52.12605 | 15746 ft | 362 kts | 198° |
| 2026-04-26 14:15 | -16.45914 | -52.12885 | 15462 ft | 363 kts | 174° |
| 2026-04-26 14:15 | -16.48413 | -52.12386 | 15228 ft | 362 kts | 169° |
| 2026-04-26 14:16 | -16.50890 | -52.11819 | 14949 ft | 361 kts | 169° |
| 2026-04-26 14:16 | -16.53325 | -52.11257 | 14676 ft | 359 kts | 168° |
| 2026-04-26 14:16 | -16.55757 | -52.10631 | 14690 ft | 358 kts | 160° |
| 2026-04-26 14:16 | -16.57838 | -52.09193 | 14709 ft | 362 kts | 133° |
| 2026-04-26 14:17 | -16.59116 | -52.06963 | 14694 ft | 366 kts | 108° |
| 2026-04-26 14:17 | -16.59389 | -52.04362 | 14456 ft | 365 kts | 82° |
| 2026-04-26 14:17 | -16.58553 | -52.01898 | 14230 ft | 361 kts | 56° |
| 2026-04-26 14:17 | -16.56799 | -52.00093 | 14019 ft | 356 kts | 29° |
| 2026-04-26 14:18 | -16.54475 | -51.99257 | 13821 ft | 351 kts | 7° |
| 2026-04-26 14:18 | -16.52063 | -51.98916 | 13596 ft | 350 kts | 6° |
| 2026-04-26 14:18 | -16.49631 | -51.98690 | 13330 ft | 347 kts | 354° |
| 2026-04-26 14:18 | -16.47276 | -51.99079 | 13206 ft | 343 kts | 353° |
| 2026-04-26 14:19 | -16.44881 | -51.99265 | 13230 ft | 344 kts | 354° |
| 2026-04-26 14:19 | -16.42486 | -51.99442 | 13236 ft | 346 kts | 354° |
| 2026-04-26 14:19 | -16.40082 | -51.99729 | 13216 ft | 344 kts | 343° |
| 2026-04-26 14:19 | -16.37845 | -52.00627 | 13227 ft | 342 kts | 331° |
| 2026-04-26 14:20 | -16.35762 | -52.01837 | 13231 ft | 342 kts | 327° |
| 2026-04-26 14:20 | -16.33748 | -52.03154 | 13236 ft | 342 kts | 325° |
| 2026-04-26 14:20 | -16.31737 | -52.04530 | 13240 ft | 342 kts | 324° |
| 2026-04-26 14:20 | -16.29835 | -52.05975 | 13221 ft | 341 kts | 313° |
| 2026-04-26 14:21 | -16.28400 | -52.07963 | 12888 ft | 341 kts | 302° |
| 2026-04-26 14:21 | -16.27127 | -52.10009 | 12507 ft | 338 kts | 302° |
| 2026-04-26 14:21 | -16.25848 | -52.12057 | 12128 ft | 333 kts | 302° |
| 2026-04-26 14:21 | -16.24585 | -52.14075 | 11749 ft | 330 kts | 302° |
| 2026-04-26 14:22 | -16.23351 | -52.16047 | 11386 ft | 324 kts | 302° |
| 2026-04-26 14:22 | -16.22144 | -52.17974 | 11036 ft | 316 kts | 302° |
| 2026-04-26 14:22 | -16.20953 | -52.19873 | 10684 ft | 308 kts | 303° |
| 2026-04-26 14:22 | -16.19806 | -52.21704 | 10347 ft | 301 kts | 303° |
| 2026-04-26 14:23 | -16.18675 | -52.23507 | 10020 ft | 293 kts | 303° |
| 2026-04-26 14:23 | -16.17565 | -52.25277 | 9697 ft | 287 kts | 303° |
| 2026-04-26 14:23 | -16.16483 | -52.27001 | 9380 ft | 286 kts | 303° |
| 2026-04-26 14:23 | -16.15399 | -52.28729 | 9066 ft | 286 kts | 303° |
| 2026-04-26 14:24 | -16.14302 | -52.30478 | 8747 ft | 286 kts | 303° |
| 2026-04-26 14:24 | -16.13217 | -52.32206 | 8435 ft | 287 kts | 303° |
| 2026-04-26 14:24 | -16.12124 | -52.33946 | 8112 ft | 287 kts | 304° |
| 2026-04-26 14:24 | -16.11035 | -52.35680 | 7792 ft | 286 kts | 304° |
| 2026-04-26 14:25 | -16.09949 | -52.37409 | 7468 ft | 286 kts | 304° |
| 2026-04-26 14:25 | -16.08869 | -52.39129 | 7156 ft | 273 kts | 304° |
| 2026-04-26 14:25 | -16.07877 | -52.40708 | 6858 ft | 254 kts | 304° |
| 2026-04-26 14:25 | -16.06931 | -52.42213 | 6591 ft | 238 kts | 305° |
| 2026-04-26 14:26 | -16.06049 | -52.43617 | 6335 ft | 232 kts | 306° |
| 2026-04-26 14:26 | -16.05176 | -52.45003 | 6072 ft | 226 kts | 306° |
| 2026-04-26 14:26 | -16.04315 | -52.46372 | 5818 ft | 221 kts | 306° |
| 2026-04-26 14:26 | -16.03406 | -52.47621 | 5574 ft | 211 kts | 321° |
| 2026-04-26 14:27 | -16.02303 | -52.48566 | 5395 ft | 202 kts | 324° |
| 2026-04-26 14:27 | -16.01225 | -52.49472 | 5157 ft | 196 kts | 324° |
| 2026-04-26 14:27 | -16.00174 | -52.50354 | 4933 ft | 190 kts | 323° |
| 2026-04-26 14:27 | -15.99163 | -52.51201 | 4724 ft | 184 kts | 323° |
| 2026-04-26 14:28 | -15.98152 | -52.51991 | 4518 ft | 175 kts | 339° |
| 2026-04-26 14:28 | -15.97069 | -52.52065 | 4393 ft | 153 kts | 22° |
| 2026-04-26 14:28 | -15.96229 | -52.51410 | 4151 ft | 152 kts | 46° |
| 2026-04-26 14:28 | -15.95507 | -52.50612 | 3917 ft | 146 kts | 47° |
| 2026-04-26 14:29 | -15.94836 | -52.49834 | 3696 ft | 143 kts | 49° |
| 2026-04-26 14:29 | -15.94186 | -52.49059 | 3520 ft | 142 kts | 49° |
| 2026-04-26 14:29 | -15.93567 | -52.48303 | 3313 ft | 135 kts | 49° |
| 2026-04-26 14:29 | -15.92960 | -52.47553 | 3118 ft | 131 kts | 50° |
| 2026-04-26 14:30 | -15.92376 | -52.46823 | 2962 ft | 131 kts | 50° |
| 2026-04-26 14:30 | -15.91798 | -52.46098 | 2840 ft | 129 kts | 50° |
| 2026-04-26 14:30 | -15.91218 | -52.45367 | 2665 ft | 132 kts | 50° |
| 2026-04-26 14:30 | -15.90639 | -52.44635 | 2486 ft | 130 kts | 50° |
| 2026-04-26 14:31 | -15.90059 | -52.43899 | 2306 ft | 130 kts | 50° |
| 2026-04-26 14:31 | -15.89486 | -52.43172 | 2128 ft | 131 kts | 50° |
| 2026-04-26 14:31 | -15.88914 | -52.42431 | 1942 ft | 131 kts | 51° |
| 2026-04-26 14:31 | -15.88353 | -52.41687 | 1723 ft | 132 kts | 50° |
| 2026-04-26 14:32 | -15.87767 | -52.40959 | 1550 ft | 130 kts | 49° |
| 2026-04-26 14:32 | -15.87185 | -52.40226 | 1389 ft | 130 kts | 50° |
| 2026-04-26 14:32 | -15.86616 | -52.39500 | 1207 ft | 130 kts | 50° |
| 2026-04-26 14:32 | -15.86142 | -52.38902 | 1194 ft | 60 kts | 51° |
| 2026-04-26 14:33 | -15.85967 | -52.38671 | 1192 ft | 36 kts | 50° |
| 2026-04-26 14:33 | -15.85801 | -52.38473 | 1186 ft | 32 kts | 52° |
| 2026-04-26 14:33 | -15.85715 | -52.38367 | 1182 ft | 10 kts | 16° |
| 2026-04-26 14:33 | -15.85681 | -52.38341 | 1181 ft | 5 kts | 139° |
| 2026-04-26 14:34 | -15.85714 | -52.38358 | 1182 ft | 5 kts | 227° |
| 2026-04-26 14:34 | -15.85740 | -52.38391 | 1183 ft | 6 kts | 231° |
| 2026-04-26 14:34 | -15.85767 | -52.38425 | 1185 ft | 6 kts | 231° |
| 2026-04-26 14:34 | -15.85797 | -52.38464 | 1186 ft | 8 kts | 231° |
| 2026-04-26 14:35 | -15.85845 | -52.38524 | 1188 ft | 13 kts | 230° |
| 2026-04-26 14:35 | -15.85914 | -52.38611 | 1190 ft | 18 kts | 232° |
| 2026-04-26 14:35 | -15.85997 | -52.38718 | 1192 ft | 19 kts | 230° |
| 2026-04-26 14:35 | -15.86082 | -52.38825 | 1194 ft | 19 kts | 231° |
| 2026-04-26 14:36 | -15.86168 | -52.38932 | 1194 ft | 19 kts | 227° |
| 2026-04-26 14:36 | -15.86258 | -52.39043 | 1194 ft | 20 kts | 232° |
| 2026-04-26 14:36 | -15.86327 | -52.39137 | 1194 ft | 9 kts | 241° |
| 2026-04-26 14:36 | -15.86303 | -52.39193 | 1194 ft | 9 kts | 322° |
| 2026-04-26 14:37 | -15.86261 | -52.39225 | 1195 ft | 3 kts | 332° |
| 2026-04-26 14:37 | -15.86233 | -52.39227 | 1195 ft | 4 kts | 14° |
| 2026-04-26 14:37 | -15.86198 | -52.39203 | 1195 ft | 7 kts | 46° |
| 2026-04-26 14:37 | -15.86159 | -52.39154 | 1196 ft | 10 kts | 52° |
| 2026-04-26 14:38 | -15.86110 | -52.39086 | 1196 ft | 12 kts | 49° |
| 2026-04-26 14:38 | -15.86046 | -52.39013 | 1196 ft | 15 kts | 50° |
| 2026-04-26 14:38 | -15.85973 | -52.38927 | 1195 ft | 10 kts | 31° |
| 2026-04-26 14:38 | -15.85937 | -52.38938 | 1195 ft | 8 kts | 314° |
| 2026-04-26 14:39 | -15.85956 | -52.39004 | 1196 ft | 8 kts | 226° |
| 2026-04-26 14:39 | -15.85996 | -52.39053 | 1197 ft | 9 kts | 232° |
| 2026-04-26 14:39 | -15.86040 | -52.39114 | 1197 ft | 11 kts | 235° |
| 2026-04-26 14:39 | -15.86091 | -52.39180 | 1197 ft | 12 kts | 229° |
| 2026-04-26 14:40 | -15.86130 | -52.39235 | 1197 ft | 4 kts | 288° |
| 2026-04-26 14:40 | -15.86100 | -52.39232 | 1197 ft | 5 kts | 41° |
| 2026-04-26 14:40 | -15.86071 | -52.39196 | 1197 ft | 7 kts | 50° |
| 2026-04-26 14:40 | -15.86036 | -52.39151 | 1197 ft | 8 kts | 53° |
| 2026-04-26 14:41 | -15.86000 | -52.39103 | 1197 ft | 8 kts | 51° |
| 2026-04-26 14:41 | -15.85960 | -52.39052 | 1197 ft | 9 kts | 51° |
| 2026-04-26 14:41 | -15.85931 | -52.39015 | 1196 ft | 3 kts | 51° |
| 2026-04-26 14:41 | -15.85928 | -52.39011 | 1196 ft | 0 kts | 51° |